sensor_id;sensor_type;location;lat;lon;timestamp;temperature;humidity
39751;DHT22;37579;51.074;17.004;2023-03-31T00:00:52;23.70;55.50
39751;DHT22;37579;51.074;17.004;2023-03-31T00:03:18;23.70;55.60
39751;DHT22;37579;51.074;17.004;2023-03-31T00:05:48;23.70;55.50
39751;DHT22;37579;51.074;17.004;2023-03-31T00:08:18;23.60;55.50
39751;DHT22;37579;51.074;17.004;2023-03-31T00:10:45;23.60;55.50
39751;DHT22;37579;51.074;17.004;2023-03-31T00:13:11;23.60;55.60
39751;DHT22;37579;51.074;17.004;2023-03-31T00:15:37;23.60;55.60
39751;DHT22;37579;51.074;17.004;2023-03-31T00:18:04;23.60;55.60
39751;DHT22;37579;51.074;17.004;2023-03-31T00:20:30;23.60;55.60
39751;DHT22;37579;51.074;17.004;2023-03-31T00:22:58;23.60;55.60
39751;DHT22;37579;51.074;17.004;2023-03-31T00:25:26;23.60;55.60
39751;DHT22;37579;51.074;17.004;2023-03-31T00:27:52;23.60;55.60
39751;DHT22;37579;51.074;17.004;2023-03-31T00:30:18;23.60;55.60
39751;DHT22;37579;51.074;17.004;2023-03-31T00:32:44;23.60;55.60
39751;DHT22;37579;51.074;17.004;2023-03-31T00:35:10;23.60;55.60
39751;DHT22;37579;51.074;17.004;2023-03-31T00:37:36;23.50;55.50
39751;DHT22;37579;51.074;17.004;2023-03-31T00:40:02;23.60;55.60
39751;DHT22;37579;51.074;17.004;2023-03-31T00:42:41;23.50;55.60
39751;DHT22;37579;51.074;17.004;2023-03-31T00:47:51;23.50;55.60
39751;DHT22;37579;51.074;17.004;2023-03-31T00:50:25;23.60;55.60
39751;DHT22;37579;51.074;17.004;2023-03-31T00:53:04;23.50;55.50
39751;DHT22;37579;51.074;17.004;2023-03-31T00:55:37;23.60;55.60
39751;DHT22;37579;51.074;17.004;2023-03-31T00:58:05;23.50;55.50
39751;DHT22;37579;51.074;17.004;2023-03-31T01:00:32;23.50;55.50
39751;DHT22;37579;51.074;17.004;2023-03-31T01:03:01;23.50;55.50
39751;DHT22;37579;51.074;17.004;2023-03-31T01:05:35;23.50;55.50
39751;DHT22;37579;51.074;17.004;2023-03-31T01:08:03;23.50;55.50
39751;DHT22;37579;51.074;17.004;2023-03-31T01:10:33;23.50;55.50
39751;DHT22;37579;51.074;17.004;2023-03-31T01:13:03;23.50;55.50
39751;DHT22;37579;51.074;17.004;2023-03-31T01:15:29;23.50;55.50
39751;DHT22;37579;51.074;17.004;2023-03-31T01:17:55;23.50;55.50
39751;DHT22;37579;51.074;17.004;2023-03-31T01:26:30;23.50;55.40
39751;DHT22;37579;51.074;17.004;2023-03-31T01:45:53;23.50;55.30
39751;DHT22;37579;51.074;17.004;2023-03-31T01:51:15;23.40;55.40
39751;DHT22;37579;51.074;17.004;2023-03-31T01:56:56;23.50;55.30
39751;DHT22;37579;51.074;17.004;2023-03-31T01:59:33;23.40;55.30
39751;DHT22;37579;51.074;17.004;2023-03-31T02:02:09;23.40;55.30
39751;DHT22;37579;51.074;17.004;2023-03-31T02:04:40;23.50;55.30
39751;DHT22;37579;51.074;17.004;2023-03-31T02:07:12;23.40;55.30
39751;DHT22;37579;51.074;17.004;2023-03-31T02:09:44;23.40;55.20
39751;DHT22;37579;51.074;17.004;2023-03-31T02:12:12;23.40;55.20
39751;DHT22;37579;51.074;17.004;2023-03-31T02:14:43;23.40;55.30
39751;DHT22;37579;51.074;17.004;2023-03-31T02:17:15;23.40;55.30
39751;DHT22;37579;51.074;17.004;2023-03-31T02:19:46;23.40;55.30
39751;DHT22;37579;51.074;17.004;2023-03-31T02:22:15;23.40;55.40
39751;DHT22;37579;51.074;17.004;2023-03-31T02:24:46;23.40;55.30
39751;DHT22;37579;51.074;17.004;2023-03-31T02:27:21;23.40;55.30
39751;DHT22;37579;51.074;17.004;2023-03-31T02:29:48;23.40;55.30
39751;DHT22;37579;51.074;17.004;2023-03-31T02:32:31;23.40;55.30
39751;DHT22;37579;51.074;17.004;2023-03-31T02:35:00;23.40;55.30
39751;DHT22;37579;51.074;17.004;2023-03-31T02:37:27;23.40;55.30
39751;DHT22;37579;51.074;17.004;2023-03-31T02:39:56;23.40;55.30
39751;DHT22;37579;51.074;17.004;2023-03-31T02:42:22;23.40;55.30
39751;DHT22;37579;51.074;17.004;2023-03-31T02:44:51;23.30;55.20
39751;DHT22;37579;51.074;17.004;2023-03-31T02:47:19;23.40;55.20
39751;DHT22;37579;51.074;17.004;2023-03-31T02:49:49;23.40;55.30
39751;DHT22;37579;51.074;17.004;2023-03-31T02:55:10;23.40;55.20
39751;DHT22;37579;51.074;17.004;2023-03-31T02:58:05;23.40;55.10
39751;DHT22;37579;51.074;17.004;2023-03-31T03:01:08;23.40;55.10
39751;DHT22;37579;51.074;17.004;2023-03-31T03:03:44;23.30;55.20
39751;DHT22;37579;51.074;17.004;2023-03-31T03:12:14;23.40;55.10
39751;DHT22;37579;51.074;17.004;2023-03-31T03:14:51;23.30;55.10
39751;DHT22;37579;51.074;17.004;2023-03-31T03:17:32;23.40;55.10
39751;DHT22;37579;51.074;17.004;2023-03-31T03:20:01;23.30;55.10
39751;DHT22;37579;51.074;17.004;2023-03-31T03:22:32;23.30;55.10
39751;DHT22;37579;51.074;17.004;2023-03-31T03:24:58;23.40;55.10
39751;DHT22;37579;51.074;17.004;2023-03-31T03:27:24;23.40;55.10
39751;DHT22;37579;51.074;17.004;2023-03-31T03:29:50;23.30;55.00
39751;DHT22;37579;51.074;17.004;2023-03-31T03:32:15;23.40;55.00
39751;DHT22;37579;51.074;17.004;2023-03-31T03:34:41;23.40;55.00
39751;DHT22;37579;51.074;17.004;2023-03-31T03:37:07;23.40;55.00
39751;DHT22;37579;51.074;17.004;2023-03-31T03:39:33;23.30;54.90
39751;DHT22;37579;51.074;17.004;2023-03-31T03:41:59;23.30;54.90
39751;DHT22;37579;51.074;17.004;2023-03-31T03:44:25;23.40;55.00
39751;DHT22;37579;51.074;17.004;2023-03-31T03:46:51;23.30;54.90
39751;DHT22;37579;51.074;17.004;2023-03-31T03:49:16;23.30;54.90
39751;DHT22;37579;51.074;17.004;2023-03-31T03:51:42;23.30;54.90
39751;DHT22;37579;51.074;17.004;2023-03-31T03:54:08;23.30;54.90
39751;DHT22;37579;51.074;17.004;2023-03-31T03:56:34;23.30;54.80
39751;DHT22;37579;51.074;17.004;2023-03-31T03:58:59;23.30;54.80
39751;DHT22;37579;51.074;17.004;2023-03-31T04:01:25;23.40;54.90
39751;DHT22;37579;51.074;17.004;2023-03-31T04:03:51;23.30;54.80
39751;DHT22;37579;51.074;17.004;2023-03-31T04:06:17;23.30;54.80
39751;DHT22;37579;51.074;17.004;2023-03-31T04:08:43;23.30;54.80
39751;DHT22;37579;51.074;17.004;2023-03-31T04:11:13;23.30;54.80
39751;DHT22;37579;51.074;17.004;2023-03-31T04:13:39;23.40;54.80
39751;DHT22;37579;51.074;17.004;2023-03-31T04:16:06;23.30;54.70
39751;DHT22;37579;51.074;17.004;2023-03-31T04:18:32;23.40;54.70
39751;DHT22;37579;51.074;17.004;2023-03-31T04:20:58;23.40;54.60
39751;DHT22;37579;51.074;17.004;2023-03-31T04:23:34;23.50;54.60
39751;DHT22;37579;51.074;17.004;2023-03-31T04:26:03;23.50;54.50
39751;DHT22;37579;51.074;17.004;2023-03-31T04:28:34;23.50;54.40
39751;DHT22;37579;51.074;17.004;2023-03-31T04:31:01;23.60;54.60
39751;DHT22;37579;51.074;17.004;2023-03-31T04:33:28;23.60;54.30
39751;DHT22;37579;51.074;17.004;2023-03-31T04:35:54;23.60;54.20
39751;DHT22;37579;51.074;17.004;2023-03-31T04:38:22;23.60;54.10
39751;DHT22;37579;51.074;17.004;2023-03-31T04:40:50;23.70;54.10
39751;DHT22;37579;51.074;17.004;2023-03-31T04:43:17;23.70;54.00
39751;DHT22;37579;51.074;17.004;2023-03-31T04:45:43;23.70;53.90
39751;DHT22;37579;51.074;17.004;2023-03-31T04:48:10;23.70;53.90
39751;DHT22;37579;51.074;17.004;2023-03-31T04:50:36;23.70;53.80
39751;DHT22;37579;51.074;17.004;2023-03-31T04:53:03;23.80;53.80
39751;DHT22;37579;51.074;17.004;2023-03-31T04:55:29;23.80;53.70
39751;DHT22;37579;51.074;17.004;2023-03-31T04:57:55;23.80;53.70
39751;DHT22;37579;51.074;17.004;2023-03-31T05:00:21;23.80;53.70
39751;DHT22;37579;51.074;17.004;2023-03-31T05:02:47;23.80;53.80
39751;DHT22;37579;51.074;17.004;2023-03-31T05:05:13;23.90;54.10
39751;DHT22;37579;51.074;17.004;2023-03-31T05:07:40;23.90;54.10
39751;DHT22;37579;51.074;17.004;2023-03-31T05:10:06;23.90;54.10
39751;DHT22;37579;51.074;17.004;2023-03-31T05:12:38;24.00;54.10
39751;DHT22;37579;51.074;17.004;2023-03-31T05:15:05;24.00;54.00
39751;DHT22;37579;51.074;17.004;2023-03-31T05:17:33;24.10;54.10
39751;DHT22;37579;51.074;17.004;2023-03-31T05:19:59;24.10;53.90
39751;DHT22;37579;51.074;17.004;2023-03-31T05:22:26;24.10;53.90
39751;DHT22;37579;51.074;17.004;2023-03-31T05:24:52;24.20;53.90
39751;DHT22;37579;51.074;17.004;2023-03-31T05:27:18;24.20;53.90
39751;DHT22;37579;51.074;17.004;2023-03-31T05:29:46;24.20;53.90
39751;DHT22;37579;51.074;17.004;2023-03-31T05:32:12;24.20;53.80
39751;DHT22;37579;51.074;17.004;2023-03-31T05:34:38;24.20;53.70
39751;DHT22;37579;51.074;17.004;2023-03-31T05:37:04;24.20;53.80
39751;DHT22;37579;51.074;17.004;2023-03-31T05:39:30;24.20;53.90
39751;DHT22;37579;51.074;17.004;2023-03-31T05:42:00;24.30;53.70
39751;DHT22;37579;51.074;17.004;2023-03-31T05:44:26;24.30;53.20
39751;DHT22;37579;51.074;17.004;2023-03-31T05:46:53;24.30;53.20
39751;DHT22;37579;51.074;17.004;2023-03-31T05:49:19;24.40;53.20
39751;DHT22;37579;51.074;17.004;2023-03-31T05:51:44;24.30;53.30
39751;DHT22;37579;51.074;17.004;2023-03-31T05:54:11;24.20;53.40
39751;DHT22;37579;51.074;17.004;2023-03-31T05:56:37;24.20;53.40
39751;DHT22;37579;51.074;17.004;2023-03-31T05:59:03;24.30;53.30
39751;DHT22;37579;51.074;17.004;2023-03-31T06:01:29;24.40;53.30
39751;DHT22;37579;51.074;17.004;2023-03-31T06:03:55;24.60;52.80
39751;DHT22;37579;51.074;17.004;2023-03-31T06:06:21;25.10;51.50
39751;DHT22;37579;51.074;17.004;2023-03-31T06:08:47;25.30;51.00
39751;DHT22;37579;51.074;17.004;2023-03-31T06:11:19;25.50;50.30
39751;DHT22;37579;51.074;17.004;2023-03-31T06:13:45;25.30;50.90
39751;DHT22;37579;51.074;17.004;2023-03-31T06:16:13;25.00;51.90
39751;DHT22;37579;51.074;17.004;2023-03-31T06:18:40;24.80;52.40
39751;DHT22;37579;51.074;17.004;2023-03-31T06:21:06;24.80;52.60
39751;DHT22;37579;51.074;17.004;2023-03-31T06:23:32;24.80;52.60
39751;DHT22;37579;51.074;17.004;2023-03-31T06:26:03;24.80;52.70
39751;DHT22;37579;51.074;17.004;2023-03-31T06:28:30;24.80;52.70
39751;DHT22;37579;51.074;17.004;2023-03-31T06:31:04;24.90;52.70
39751;DHT22;37579;51.074;17.004;2023-03-31T06:33:31;24.80;52.70
39751;DHT22;37579;51.074;17.004;2023-03-31T06:35:57;24.80;52.80
39751;DHT22;37579;51.074;17.004;2023-03-31T06:38:26;24.70;52.70
39751;DHT22;37579;51.074;17.004;2023-03-31T06:40:52;24.70;52.90
39751;DHT22;37579;51.074;17.004;2023-03-31T06:43:18;24.60;53.20
39751;DHT22;37579;51.074;17.004;2023-03-31T06:45:44;24.50;53.20
39751;DHT22;37579;51.074;17.004;2023-03-31T06:48:09;24.50;52.90
39751;DHT22;37579;51.074;17.004;2023-03-31T06:50:39;24.50;52.80
39751;DHT22;37579;51.074;17.004;2023-03-31T06:53:09;24.40;52.90
39751;DHT22;37579;51.074;17.004;2023-03-31T06:55:35;24.60;53.00
39751;DHT22;37579;51.074;17.004;2023-03-31T06:58:01;24.60;53.20
39751;DHT22;37579;51.074;17.004;2023-03-31T07:00:27;24.50;53.30
39751;DHT22;37579;51.074;17.004;2023-03-31T07:02:53;24.60;53.30
39751;DHT22;37579;51.074;17.004;2023-03-31T07:05:20;24.50;53.50
39751;DHT22;37579;51.074;17.004;2023-03-31T07:07:56;24.40;53.90
39751;DHT22;37579;51.074;17.004;2023-03-31T07:10:24;24.40;54.50
39751;DHT22;37579;51.074;17.004;2023-03-31T07:12:50;24.30;54.40
39751;DHT22;37579;51.074;17.004;2023-03-31T07:15:16;24.30;54.50
39751;DHT22;37579;51.074;17.004;2023-03-31T07:17:43;24.30;54.70
39751;DHT22;37579;51.074;17.004;2023-03-31T07:20:10;24.20;54.60
39751;DHT22;37579;51.074;17.004;2023-03-31T07:22:44;24.20;54.60
39751;DHT22;37579;51.074;17.004;2023-03-31T07:25:11;24.20;54.60
39751;DHT22;37579;51.074;17.004;2023-03-31T07:27:39;24.20;54.50
39751;DHT22;37579;51.074;17.004;2023-03-31T07:30:06;24.20;54.50
39751;DHT22;37579;51.074;17.004;2023-03-31T07:32:32;24.20;54.50
39751;DHT22;37579;51.074;17.004;2023-03-31T07:34:58;24.20;55.00
39751;DHT22;37579;51.074;17.004;2023-03-31T07:37:24;24.30;55.50
39751;DHT22;37579;51.074;17.004;2023-03-31T07:39:50;24.30;55.50
39751;DHT22;37579;51.074;17.004;2023-03-31T07:42:16;24.20;55.80
39751;DHT22;37579;51.074;17.004;2023-03-31T07:44:42;24.30;56.10
39751;DHT22;37579;51.074;17.004;2023-03-31T07:47:08;24.30;56.30
39751;DHT22;37579;51.074;17.004;2023-03-31T07:49:34;24.30;56.30
39751;DHT22;37579;51.074;17.004;2023-03-31T07:52:00;24.30;56.20
39751;DHT22;37579;51.074;17.004;2023-03-31T07:54:27;24.40;56.10
39751;DHT22;37579;51.074;17.004;2023-03-31T07:56:52;24.40;56.00
39751;DHT22;37579;51.074;17.004;2023-03-31T07:59:19;24.50;55.90
39751;DHT22;37579;51.074;17.004;2023-03-31T08:01:45;24.60;55.60
39751;DHT22;37579;51.074;17.004;2023-03-31T08:04:11;24.70;55.60
39751;DHT22;37579;51.074;17.004;2023-03-31T08:06:38;24.80;55.50
39751;DHT22;37579;51.074;17.004;2023-03-31T08:09:05;24.80;55.00
39751;DHT22;37579;51.074;17.004;2023-03-31T08:11:32;24.80;54.60
39751;DHT22;37579;51.074;17.004;2023-03-31T08:13:58;24.80;54.70
39751;DHT22;37579;51.074;17.004;2023-03-31T08:16:24;24.80;55.00
39751;DHT22;37579;51.074;17.004;2023-03-31T08:18:50;24.80;54.70
39751;DHT22;37579;51.074;17.004;2023-03-31T08:21:16;24.80;54.40
39751;DHT22;37579;51.074;17.004;2023-03-31T08:23:42;24.80;54.40
39751;DHT22;37579;51.074;17.004;2023-03-31T08:26:15;24.80;54.30
39751;DHT22;37579;51.074;17.004;2023-03-31T08:28:46;24.80;54.00
39751;DHT22;37579;51.074;17.004;2023-03-31T08:31:16;24.80;53.60
39751;DHT22;37579;51.074;17.004;2023-03-31T08:33:43;24.70;53.40
39751;DHT22;37579;51.074;17.004;2023-03-31T08:36:10;24.70;53.20
39751;DHT22;37579;51.074;17.004;2023-03-31T08:38:37;24.70;53.20
39751;DHT22;37579;51.074;17.004;2023-03-31T08:41:06;24.70;53.30
39751;DHT22;37579;51.074;17.004;2023-03-31T08:43:36;24.60;54.10
39751;DHT22;37579;51.074;17.004;2023-03-31T08:46:03;24.60;53.50
39751;DHT22;37579;51.074;17.004;2023-03-31T08:48:35;24.60;53.60
39751;DHT22;37579;51.074;17.004;2023-03-31T08:51:17;24.60;53.60
39751;DHT22;37579;51.074;17.004;2023-03-31T08:53:58;24.60;53.50
39751;DHT22;37579;51.074;17.004;2023-03-31T08:56:32;24.60;53.50
39751;DHT22;37579;51.074;17.004;2023-03-31T08:58:59;24.60;53.50
39751;DHT22;37579;51.074;17.004;2023-03-31T09:01:43;24.50;53.50
39751;DHT22;37579;51.074;17.004;2023-03-31T09:09:38;23.70;44.90
39751;DHT22;37579;51.074;17.004;2023-03-31T09:12:17;23.60;44.70
39751;DHT22;37579;51.074;17.004;2023-03-31T09:15:00;22.90;44.30
39751;DHT22;37579;51.074;17.004;2023-03-31T09:17:47;22.60;44.20
39751;DHT22;37579;51.074;17.004;2023-03-31T09:20:22;23.10;46.50
39751;DHT22;37579;51.074;17.004;2023-03-31T09:22:56;23.60;47.10
39751;DHT22;37579;51.074;17.004;2023-03-31T09:25:26;23.80;47.50
39751;DHT22;37579;51.074;17.004;2023-03-31T09:27:55;23.80;47.60
39751;DHT22;37579;51.074;17.004;2023-03-31T09:30:27;23.80;47.80
39751;DHT22;37579;51.074;17.004;2023-03-31T09:35:47;23.80;48.10
39751;DHT22;37579;51.074;17.004;2023-03-31T09:38:14;23.80;48.30
39751;DHT22;37579;51.074;17.004;2023-03-31T09:40:41;23.80;48.40
39751;DHT22;37579;51.074;17.004;2023-03-31T09:43:27;23.90;48.80
39751;DHT22;37579;51.074;17.004;2023-03-31T09:45:54;23.90;48.90
39751;DHT22;37579;51.074;17.004;2023-03-31T09:48:29;23.90;48.90
39751;DHT22;37579;51.074;17.004;2023-03-31T09:50:59;23.90;48.90
39751;DHT22;37579;51.074;17.004;2023-03-31T09:53:45;24.00;48.70
39751;DHT22;37579;51.074;17.004;2023-03-31T09:56:11;24.00;48.80
39751;DHT22;37579;51.074;17.004;2023-03-31T09:58:44;24.00;49.00
39751;DHT22;37579;51.074;17.004;2023-03-31T10:01:12;24.00;48.90
39751;DHT22;37579;51.074;17.004;2023-03-31T10:03:52;24.10;49.00
39751;DHT22;37579;51.074;17.004;2023-03-31T10:06:20;24.10;49.00
39751;DHT22;37579;51.074;17.004;2023-03-31T10:08:54;24.20;49.00
39751;DHT22;37579;51.074;17.004;2023-03-31T10:11:21;24.20;49.10
39751;DHT22;37579;51.074;17.004;2023-03-31T10:14:10;24.20;49.30
39751;DHT22;37579;51.074;17.004;2023-03-31T10:16:52;24.20;49.50
39751;DHT22;37579;51.074;17.004;2023-03-31T10:19:20;24.20;49.60
39751;DHT22;37579;51.074;17.004;2023-03-31T10:21:48;24.20;49.60
39751;DHT22;37579;51.074;17.004;2023-03-31T10:24:19;24.20;49.60
39751;DHT22;37579;51.074;17.004;2023-03-31T10:26:51;24.20;49.70
39751;DHT22;37579;51.074;17.004;2023-03-31T10:29:21;24.20;49.80
39751;DHT22;37579;51.074;17.004;2023-03-31T10:31:50;24.20;49.80
39751;DHT22;37579;51.074;17.004;2023-03-31T10:34:17;24.20;50.00
39751;DHT22;37579;51.074;17.004;2023-03-31T10:36:48;24.20;50.00
39751;DHT22;37579;51.074;17.004;2023-03-31T10:39:17;24.10;50.20
39751;DHT22;37579;51.074;17.004;2023-03-31T10:41:51;24.10;50.30
39751;DHT22;37579;51.074;17.004;2023-03-31T10:44:51;24.20;50.40
39751;DHT22;37579;51.074;17.004;2023-03-31T10:47:34;24.10;50.60
39751;DHT22;37579;51.074;17.004;2023-03-31T10:50:04;24.10;50.70
39751;DHT22;37579;51.074;17.004;2023-03-31T10:52:43;24.20;50.90
39751;DHT22;37579;51.074;17.004;2023-03-31T10:55:12;24.10;51.00
39751;DHT22;37579;51.074;17.004;2023-03-31T10:57:57;24.10;51.10
39751;DHT22;37579;51.074;17.004;2023-03-31T11:06:54;24.20;51.40
39751;DHT22;37579;51.074;17.004;2023-03-31T11:18:16;24.30;51.70
39751;DHT22;37579;51.074;17.004;2023-03-31T11:20:56;24.20;51.60
39751;DHT22;37579;51.074;17.004;2023-03-31T11:26:33;24.30;51.90
39751;DHT22;37579;51.074;17.004;2023-03-31T11:29:37;24.20;52.00
39751;DHT22;37579;51.074;17.004;2023-03-31T11:43:00;24.30;53.10
39751;DHT22;37579;51.074;17.004;2023-03-31T11:48:35;24.30;53.90
39751;DHT22;37579;51.074;17.004;2023-03-31T11:51:06;24.20;53.80
39751;DHT22;37579;51.074;17.004;2023-03-31T11:53:36;24.20;54.10
39751;DHT22;37579;51.074;17.004;2023-03-31T11:56:04;24.20;54.00
39751;DHT22;37579;51.074;17.004;2023-03-31T11:58:34;24.20;54.10
39751;DHT22;37579;51.074;17.004;2023-03-31T12:04:22;24.30;53.80
39751;DHT22;37579;51.074;17.004;2023-03-31T12:06:44;24.30;54.50
39751;DHT22;37579;51.074;17.004;2023-03-31T12:12:13;24.30;54.40
39751;DHT22;37579;51.074;17.004;2023-03-31T12:17:16;24.30;54.20
39751;DHT22;37579;51.074;17.004;2023-03-31T12:19:47;24.40;54.30
39751;DHT22;37579;51.074;17.004;2023-03-31T12:22:24;24.40;54.20
39751;DHT22;37579;51.074;17.004;2023-03-31T12:24:51;24.40;54.20
39751;DHT22;37579;51.074;17.004;2023-03-31T12:27:37;24.40;54.10
39751;DHT22;37579;51.074;17.004;2023-03-31T12:30:33;24.40;54.00
39751;DHT22;37579;51.074;17.004;2023-03-31T12:33:11;24.40;54.20
39751;DHT22;37579;51.074;17.004;2023-03-31T12:44:05;24.40;53.90
39751;DHT22;37579;51.074;17.004;2023-03-31T12:55:39;24.40;53.70
39751;DHT22;37579;51.074;17.004;2023-03-31T13:05:59;24.20;53.90
39751;DHT22;37579;51.074;17.004;2023-03-31T13:08:48;24.20;53.90
39751;DHT22;37579;51.074;17.004;2023-03-31T13:11:14;24.10;53.90
39751;DHT22;37579;51.074;17.004;2023-03-31T13:16:42;24.10;54.30
39751;DHT22;37579;51.074;17.004;2023-03-31T13:19:25;24.10;54.40
39751;DHT22;37579;51.074;17.004;2023-03-31T13:21:54;24.00;54.30
39751;DHT22;37579;51.074;17.004;2023-03-31T13:24:21;24.10;54.40
39751;DHT22;37579;51.074;17.004;2023-03-31T13:26:48;24.10;54.50
39751;DHT22;37579;51.074;17.004;2023-03-31T13:32:19;24.10;54.50
39751;DHT22;37579;51.074;17.004;2023-03-31T13:34:53;24.00;54.50
39751;DHT22;37579;51.074;17.004;2023-03-31T14:08:54;24.40;55.10
39751;DHT22;37579;51.074;17.004;2023-03-31T14:11:28;24.50;55.00
39751;DHT22;37579;51.074;17.004;2023-03-31T14:14:14;24.60;55.00
39751;DHT22;37579;51.074;17.004;2023-03-31T14:22:21;24.60;54.90
39751;DHT22;37579;51.074;17.004;2023-03-31T14:25:39;24.60;54.80
39751;DHT22;37579;51.074;17.004;2023-03-31T14:33:41;24.80;54.90
39751;DHT22;37579;51.074;17.004;2023-03-31T14:39:09;24.80;54.70
39751;DHT22;37579;51.074;17.004;2023-03-31T14:41:35;24.80;54.60
39751;DHT22;37579;51.074;17.004;2023-03-31T14:44:05;24.80;54.60
39751;DHT22;37579;51.074;17.004;2023-03-31T14:46:36;24.80;54.60
39751;DHT22;37579;51.074;17.004;2023-03-31T14:49:25;24.80;54.40
39751;DHT22;37579;51.074;17.004;2023-03-31T14:51:57;24.80;54.50
39751;DHT22;37579;51.074;17.004;2023-03-31T14:54:23;24.80;54.40
39751;DHT22;37579;51.074;17.004;2023-03-31T14:56:54;24.80;54.30
39751;DHT22;37579;51.074;17.004;2023-03-31T14:59:29;24.80;54.20
39751;DHT22;37579;51.074;17.004;2023-03-31T15:01:59;24.90;54.30
39751;DHT22;37579;51.074;17.004;2023-03-31T15:04:29;24.90;54.40
39751;DHT22;37579;51.074;17.004;2023-03-31T15:06:56;24.90;54.30
39751;DHT22;37579;51.074;17.004;2023-03-31T15:09:28;24.90;54.40
39751;DHT22;37579;51.074;17.004;2023-03-31T15:11:58;24.90;54.30
39751;DHT22;37579;51.074;17.004;2023-03-31T15:14:32;24.90;54.10
39751;DHT22;37579;51.074;17.004;2023-03-31T15:17:00;24.90;54.10
39751;DHT22;37579;51.074;17.004;2023-03-31T15:19:34;24.90;54.10
39751;DHT22;37579;51.074;17.004;2023-03-31T15:22:13;24.90;54.10
39751;DHT22;37579;51.074;17.004;2023-03-31T15:24:40;24.90;54.20
39751;DHT22;37579;51.074;17.004;2023-03-31T15:27:11;24.90;54.20
39751;DHT22;37579;51.074;17.004;2023-03-31T15:29:49;24.90;54.20
39751;DHT22;37579;51.074;17.004;2023-03-31T15:32:29;24.90;54.10
39751;DHT22;37579;51.074;17.004;2023-03-31T15:34:57;25.00;54.30
39751;DHT22;37579;51.074;17.004;2023-03-31T15:37:46;25.00;54.50
39751;DHT22;37579;51.074;17.004;2023-03-31T15:42:45;24.90;54.50
39751;DHT22;37579;51.074;17.004;2023-03-31T15:47:55;24.80;54.60
39751;DHT22;37579;51.074;17.004;2023-03-31T15:50:23;24.90;54.70
39751;DHT22;37579;51.074;17.004;2023-03-31T15:52:54;24.90;54.60
39751;DHT22;37579;51.074;17.004;2023-03-31T15:57:54;25.00;54.50
39751;DHT22;37579;51.074;17.004;2023-03-31T16:03:11;25.00;54.60
39751;DHT22;37579;51.074;17.004;2023-03-31T16:05:41;25.00;54.80
39751;DHT22;37579;51.074;17.004;2023-03-31T16:08:35;25.00;54.70
39751;DHT22;37579;51.074;17.004;2023-03-31T16:11:12;25.00;54.70
39751;DHT22;37579;51.074;17.004;2023-03-31T16:13:42;24.80;53.60
39751;DHT22;37579;51.074;17.004;2023-03-31T16:16:12;24.90;53.30
39751;DHT22;37579;51.074;17.004;2023-03-31T16:18:48;24.90;53.50
39751;DHT22;37579;51.074;17.004;2023-03-31T16:21:21;24.90;53.80
39751;DHT22;37579;51.074;17.004;2023-03-31T16:23:53;24.80;53.70
39751;DHT22;37579;51.074;17.004;2023-03-31T16:26:22;24.80;53.80
39751;DHT22;37579;51.074;17.004;2023-03-31T16:28:50;24.90;53.70
39751;DHT22;37579;51.074;17.004;2023-03-31T16:31:39;24.90;53.70
39751;DHT22;37579;51.074;17.004;2023-03-31T16:34:07;25.00;53.70
39751;DHT22;37579;51.074;17.004;2023-03-31T16:36:34;25.00;53.50
39751;DHT22;37579;51.074;17.004;2023-03-31T16:39:00;25.00;53.50
39751;DHT22;37579;51.074;17.004;2023-03-31T16:41:33;24.90;53.40
39751;DHT22;37579;51.074;17.004;2023-03-31T16:44:00;24.90;53.80
39751;DHT22;37579;51.074;17.004;2023-03-31T16:46:26;24.90;53.30
39751;DHT22;37579;51.074;17.004;2023-03-31T16:48:52;24.90;53.70
39751;DHT22;37579;51.074;17.004;2023-03-31T16:51:18;24.80;53.90
39751;DHT22;37579;51.074;17.004;2023-03-31T16:53:45;24.80;54.00
39751;DHT22;37579;51.074;17.004;2023-03-31T16:56:12;24.70;54.20
39751;DHT22;37579;51.074;17.004;2023-03-31T16:58:39;24.70;54.20
39751;DHT22;37579;51.074;17.004;2023-03-31T17:01:06;24.70;54.30
39751;DHT22;37579;51.074;17.004;2023-03-31T17:03:34;24.70;54.40
39751;DHT22;37579;51.074;17.004;2023-03-31T17:06:10;24.70;54.50
39751;DHT22;37579;51.074;17.004;2023-03-31T17:08:36;24.60;54.40
39751;DHT22;37579;51.074;17.004;2023-03-31T17:11:12;24.60;54.40
39751;DHT22;37579;51.074;17.004;2023-03-31T17:13:39;24.70;54.50
39751;DHT22;37579;51.074;17.004;2023-03-31T17:16:06;24.70;54.30
39751;DHT22;37579;51.074;17.004;2023-03-31T17:18:33;24.70;54.50
39751;DHT22;37579;51.074;17.004;2023-03-31T17:21:10;24.70;54.40
39751;DHT22;37579;51.074;17.004;2023-03-31T17:23:37;24.80;54.40
39751;DHT22;37579;51.074;17.004;2023-03-31T17:26:04;24.80;54.30
39751;DHT22;37579;51.074;17.004;2023-03-31T17:28:31;24.80;54.40
39751;DHT22;37579;51.074;17.004;2023-03-31T17:30:57;24.80;54.40
39751;DHT22;37579;51.074;17.004;2023-03-31T17:33:23;24.80;54.40
39751;DHT22;37579;51.074;17.004;2023-03-31T17:35:49;24.80;54.40
39751;DHT22;37579;51.074;17.004;2023-03-31T17:38:15;24.80;54.40
39751;DHT22;37579;51.074;17.004;2023-03-31T17:40:44;24.80;54.40
39751;DHT22;37579;51.074;17.004;2023-03-31T17:43:10;24.80;54.50
39751;DHT22;37579;51.074;17.004;2023-03-31T17:45:36;24.90;54.40
39751;DHT22;37579;51.074;17.004;2023-03-31T17:48:02;24.90;54.30
39751;DHT22;37579;51.074;17.004;2023-03-31T17:50:30;25.00;54.40
39751;DHT22;37579;51.074;17.004;2023-03-31T17:52:57;25.00;54.30
39751;DHT22;37579;51.074;17.004;2023-03-31T17:55:23;25.00;54.10
39751;DHT22;37579;51.074;17.004;2023-03-31T17:57:49;25.00;54.10
39751;DHT22;37579;51.074;17.004;2023-03-31T18:00:16;25.00;54.10
39751;DHT22;37579;51.074;17.004;2023-03-31T18:02:42;25.00;54.20
39751;DHT22;37579;51.074;17.004;2023-03-31T18:05:09;25.00;54.50
39751;DHT22;37579;51.074;17.004;2023-03-31T18:07:36;25.00;54.30
39751;DHT22;37579;51.074;17.004;2023-03-31T18:10:03;25.00;54.40
39751;DHT22;37579;51.074;17.004;2023-03-31T18:12:31;25.00;54.30
39751;DHT22;37579;51.074;17.004;2023-03-31T18:14:57;25.00;54.40
39751;DHT22;37579;51.074;17.004;2023-03-31T18:17:23;25.00;54.40
39751;DHT22;37579;51.074;17.004;2023-03-31T18:19:49;25.00;54.60
39751;DHT22;37579;51.074;17.004;2023-03-31T18:22:15;25.00;54.60
39751;DHT22;37579;51.074;17.004;2023-03-31T18:24:40;24.90;54.60
39751;DHT22;37579;51.074;17.004;2023-03-31T18:27:07;24.90;54.90
39751;DHT22;37579;51.074;17.004;2023-03-31T18:29:33;24.90;55.00